createdAt,value
2018-06-14T00:00:45.376Z,15.3
2018-06-14T00:01:47.037Z,14.5
2018-06-14T00:02:48.688Z,15.5
2018-06-14T00:03:50.351Z,12.9
2018-06-14T00:04:51.999Z,16.2
2018-06-14T00:05:53.635Z,15.0
2018-06-14T00:06:55.290Z,14.5
2018-06-14T00:07:57.529Z,13.3
2018-06-14T00:08:59.175Z,14.3
2018-06-14T00:10:01.742Z,15.5
2018-06-14T00:11:04.165Z,17.1
2018-06-14T00:12:05.818Z,17.7
2018-06-14T00:13:07.464Z,17.7
2018-06-14T00:14:09.121Z,16.5
2018-06-14T00:15:10.764Z,13.8
2018-06-14T00:16:12.411Z,14.9
2018-06-14T00:17:14.063Z,13.8
2018-06-14T00:18:15.725Z,17.1
2018-06-14T00:19:17.371Z,11.6
2018-06-14T00:20:19.016Z,15.8
2018-06-14T00:21:20.660Z,14.5
2018-06-14T00:22:22.309Z,14.6
2018-06-14T00:23:23.956Z,15.6
2018-06-14T00:24:25.605Z,13.9
2018-06-14T00:25:27.253Z,12.2
2018-06-14T00:26:28.913Z,14.2
2018-06-14T00:27:30.560Z,22.4
2018-06-14T00:28:32.208Z,14.8
2018-06-14T00:29:33.856Z,13.7
2018-06-14T00:30:35.498Z,16.6
2018-06-14T00:31:37.160Z,17.6
2018-06-14T00:32:38.802Z,17.8
2018-06-14T00:33:40.450Z,12.2
2018-06-14T00:34:42.114Z,13.9
2018-06-14T00:35:43.764Z,15.1
2018-06-14T00:36:45.413Z,16.5
2018-06-14T00:37:47.057Z,19.7
2018-06-14T00:38:48.700Z,14.7
2018-06-14T00:39:50.352Z,17.9
2018-06-14T00:40:51.998Z,14.7
2018-06-14T00:41:53.644Z,15.3
2018-06-14T00:42:55.296Z,12.9
2018-06-14T00:43:56.943Z,16.1
2018-06-14T00:44:58.590Z,16.4
2018-06-14T00:46:00.243Z,15.5
2018-06-14T00:47:01.897Z,17.0
2018-06-14T00:48:03.540Z,21.4
2018-06-14T00:49:05.186Z,15.8
2018-06-14T00:50:06.825Z,15.9
2018-06-14T00:51:08.485Z,14.4
2018-06-14T00:52:10.135Z,14.7
2018-06-14T00:53:11.779Z,12.0
2018-06-14T00:54:13.431Z,14.8
2018-06-14T00:55:15.085Z,16.2
2018-06-14T00:56:16.726Z,15.2
2018-06-14T00:57:18.378Z,14.6
2018-06-14T00:58:20.034Z,16.7
2018-06-14T00:59:21.684Z,15.5
2018-06-14T01:00:23.333Z,15.5
2018-06-14T01:01:24.972Z,12.6
2018-06-14T01:02:26.625Z,14.3
2018-06-14T01:03:28.277Z,15.5
2018-06-14T01:04:29.931Z,18.5
2018-06-14T01:05:31.635Z,13.6
2018-06-14T01:06:33.287Z,15.2
2018-06-14T01:07:34.940Z,14.0
2018-06-14T01:08:36.601Z,14.6
2018-06-14T01:09:38.248Z,18.1
2018-06-14T01:10:39.894Z,16.3
2018-06-14T01:11:41.535Z,15.7
2018-06-14T01:12:43.175Z,16.9
2018-06-14T01:13:44.811Z,20.6
2018-06-14T01:14:46.507Z,15.5
2018-06-14T01:15:48.770Z,16.0
2018-06-14T01:16:50.413Z,13.5
2018-06-14T01:17:52.066Z,16.0
2018-06-14T01:18:53.712Z,19.2
2018-06-14T01:19:55.368Z,18.7
2018-06-14T01:20:57.014Z,15.4
2018-06-14T01:21:58.665Z,16.3
2018-06-14T01:23:00.312Z,16.8
2018-06-14T01:24:01.955Z,17.0
2018-06-14T01:25:03.602Z,16.4
2018-06-14T01:26:05.245Z,16.2
2018-06-14T01:27:06.893Z,13.7
2018-06-14T01:28:08.545Z,19.3
2018-06-14T01:29:10.184Z,14.0
2018-06-14T01:30:11.836Z,18.3
2018-06-14T01:31:13.521Z,18.1
2018-06-14T01:32:15.121Z,13.5
2018-06-14T01:33:17.552Z,14.2
2018-06-14T01:34:19.204Z,15.5
2018-06-14T01:35:20.848Z,16.4
2018-06-14T01:36:22.493Z,13.4
2018-06-14T01:37:24.141Z,14.8
2018-06-14T01:38:25.781Z,19.5
2018-06-14T01:39:27.445Z,18.4
2018-06-14T01:40:29.103Z,13.9
2018-06-14T01:41:30.747Z,14.8
2018-06-14T01:42:32.395Z,16.9
2018-06-14T01:43:34.038Z,19.4
2018-06-14T01:44:35.688Z,18.6
2018-06-14T01:45:37.334Z,16.5
2018-06-14T01:46:38.985Z,14.1
2018-06-14T01:47:40.637Z,17.0
2018-06-14T01:48:42.289Z,17.8
2018-06-14T01:49:44.005Z,13.9
2018-06-14T01:50:45.643Z,16.4
2018-06-14T01:51:47.295Z,17.1
2018-06-14T01:52:48.944Z,17.6
2018-06-14T01:53:50.590Z,31.8
2018-06-14T01:54:52.236Z,18.4
2018-06-14T02:01:03.960Z,16.6
2018-06-14T02:02:05.603Z,15.0
2018-06-14T02:03:07.247Z,16.2
2018-06-14T02:04:08.884Z,19.1
2018-06-14T02:05:10.536Z,16.5
2018-06-14T02:06:12.935Z,17.6
2018-06-14T02:07:14.583Z,17.2
2018-06-14T02:08:16.229Z,19.0
2018-06-14T02:09:17.872Z,16.2
2018-06-14T02:10:19.526Z,15.8
2018-06-14T02:11:21.169Z,16.2
2018-06-14T02:12:22.828Z,14.2
2018-06-14T02:13:24.473Z,18.8
2018-06-14T02:14:26.118Z,16.2
2018-06-14T02:15:27.768Z,13.5
2018-06-14T02:16:29.409Z,14.1
2018-06-14T02:17:31.055Z,14.8
2018-06-14T02:18:32.698Z,15.7
2018-06-14T02:19:34.354Z,15.1
2018-06-14T02:20:36.003Z,19.9
2018-06-14T02:21:37.646Z,14.0
2018-06-14T02:22:40.083Z,18.4
2018-06-14T02:23:41.740Z,20.2
2018-06-14T02:24:43.386Z,14.3
2018-06-14T02:25:45.041Z,15.9
2018-06-14T02:26:46.737Z,19.2
2018-06-14T02:27:48.385Z,16.7
2018-06-14T02:28:50.034Z,17.0
2018-06-14T02:29:51.689Z,16.2
2018-06-14T02:30:53.328Z,15.7
2018-06-14T02:31:54.977Z,14.2
2018-06-14T02:32:56.625Z,16.5
2018-06-14T02:33:58.271Z,16.2
2018-06-14T02:34:59.914Z,19.9
2018-06-14T02:36:01.597Z,16.1
2018-06-14T02:37:03.245Z,17.4
2018-06-14T02:38:04.892Z,13.3
2018-06-14T02:39:06.536Z,13.9
2018-06-14T02:40:08.181Z,15.8
2018-06-14T02:41:09.827Z,14.4
2018-06-14T02:42:11.488Z,17.0
2018-06-14T02:43:13.135Z,14.2
2018-06-14T02:44:14.782Z,14.8
2018-06-14T02:45:16.432Z,14.4
2018-06-14T02:46:18.080Z,16.0
2018-06-14T02:47:19.723Z,12.7
2018-06-14T02:48:21.380Z,16.8
2018-06-14T02:49:23.026Z,13.2
2018-06-14T02:50:24.674Z,18.6
2018-06-14T02:51:26.327Z,14.0
2018-06-14T02:52:27.962Z,14.2
2018-06-14T02:53:30.172Z,15.1
2018-06-14T02:54:31.817Z,17.7
2018-06-14T02:55:33.470Z,16.1
2018-06-14T02:56:35.128Z,20.0
2018-06-14T02:57:36.781Z,13.5
2018-06-14T02:58:38.432Z,14.2
2018-06-14T02:59:40.071Z,15.2
2018-06-14T03:00:41.728Z,15.5
2018-06-14T03:01:43.382Z,12.4
2018-06-14T03:02:45.035Z,13.5
2018-06-14T03:03:46.723Z,20.8
2018-06-14T03:04:48.369Z,16.7
2018-06-14T03:05:50.024Z,15.5
2018-06-14T03:06:51.667Z,16.0
2018-06-14T03:07:53.311Z,15.6
2018-06-14T03:08:54.965Z,16.0
2018-06-14T03:09:56.617Z,19.2
2018-06-14T03:10:58.263Z,13.1
2018-06-14T03:11:59.923Z,13.4
2018-06-14T03:13:01.596Z,13.4
2018-06-14T03:14:03.245Z,14.9
2018-06-14T03:15:04.894Z,15.7
2018-06-14T03:16:06.541Z,13.5
2018-06-14T03:17:08.186Z,16.4
2018-06-14T03:18:09.844Z,16.8
2018-06-14T03:19:11.483Z,14.1
2018-06-14T03:20:13.133Z,16.1
2018-06-14T03:21:14.786Z,18.5
2018-06-14T03:22:16.420Z,18.0
2018-06-14T03:23:18.064Z,14.8
2018-06-14T03:24:19.719Z,17.1
2018-06-14T03:25:22.135Z,26.9
2018-06-14T03:26:23.795Z,18.4
2018-06-14T03:27:25.446Z,17.3
2018-06-14T03:28:27.106Z,18.8
2018-06-14T03:29:28.757Z,16.1
2018-06-14T03:30:30.413Z,13.4
2018-06-14T03:31:32.665Z,14.0
2018-06-14T03:32:34.315Z,14.3
2018-06-14T03:33:35.965Z,17.8
2018-06-14T03:34:37.623Z,16.0
2018-06-14T03:35:39.273Z,17.2
2018-06-14T03:36:40.916Z,17.7
2018-06-14T03:37:42.568Z,13.1
2018-06-14T03:38:44.213Z,12.4
2018-06-14T03:39:45.872Z,14.6
2018-06-14T03:40:47.569Z,13.3
2018-06-14T03:41:49.209Z,12.1
2018-06-14T03:42:50.865Z,15.1
2018-06-14T03:43:52.514Z,15.6
2018-06-14T03:44:54.165Z,13.4
2018-06-14T03:45:55.804Z,13.9
2018-06-14T03:46:57.461Z,14.6
2018-06-14T03:47:59.959Z,14.7
2018-06-14T03:49:01.601Z,14.2
2018-06-14T03:50:03.246Z,14.1
2018-06-14T03:51:04.903Z,16.1
2018-06-14T03:52:06.561Z,14.4
2018-06-14T03:53:08.220Z,12.0
2018-06-14T03:54:09.871Z,15.3
2018-06-14T03:55:11.523Z,10.9
2018-06-14T03:56:13.171Z,12.6
2018-06-14T03:57:14.819Z,11.9
2018-06-14T03:58:16.525Z,12.7
2018-06-14T03:59:18.124Z,12.2
2018-06-14T04:00:19.773Z,15.5
2018-06-14T04:01:21.426Z,11.1
2018-06-14T04:02:23.072Z,11.1
2018-06-14T04:03:24.730Z,11.4
2018-06-14T04:04:26.394Z,12.7
2018-06-14T04:05:28.041Z,12.9
2018-06-14T04:06:29.690Z,12.8
2018-06-14T04:07:31.346Z,12.0
2018-06-14T04:08:32.999Z,14.1
2018-06-14T04:09:34.661Z,10.9
2018-06-14T04:10:36.306Z,11.9
2018-06-14T04:11:37.966Z,11.3
2018-06-14T04:12:39.621Z,12.3
2018-06-14T04:13:41.275Z,12.5
2018-06-14T04:14:42.958Z,11.9
2018-06-14T04:15:44.645Z,15.8
2018-06-14T04:16:46.296Z,12.3
2018-06-14T04:17:48.007Z,14.1
2018-06-14T04:18:49.661Z,13.0
2018-06-14T04:19:51.310Z,12.2
2018-06-14T04:20:52.964Z,14.5
2018-06-14T04:21:54.624Z,14.7
2018-06-14T04:22:56.268Z,13.8
2018-06-14T04:23:57.929Z,11.0
2018-06-14T04:24:59.604Z,13.3
2018-06-14T04:26:01.277Z,12.2
2018-06-14T04:27:02.926Z,16.2
2018-06-14T04:28:04.584Z,13.8
2018-06-14T04:29:06.224Z,12.5
2018-06-14T04:30:07.865Z,9.6
2018-06-14T04:31:09.524Z,15.1
2018-06-14T04:32:11.174Z,9.3
2018-06-14T04:33:12.829Z,15.2
2018-06-14T04:34:14.478Z,13.0
2018-06-14T04:35:16.127Z,13.5
2018-06-14T04:36:17.782Z,16.0
2018-06-14T04:37:19.443Z,17.7
2018-06-14T04:38:21.156Z,16.9
2018-06-14T04:39:22.839Z,13.5
2018-06-14T04:40:24.472Z,14.8
2018-06-14T04:41:26.140Z,12.8
2018-06-14T04:42:27.799Z,17.0
2018-06-14T04:43:29.447Z,19.0
2018-06-14T04:44:31.103Z,17.9
2018-06-14T04:45:32.750Z,13.7
2018-06-14T04:46:34.405Z,15.4
2018-06-14T04:47:36.069Z,15.1
2018-06-14T04:48:37.721Z,18.6
2018-06-14T04:49:39.662Z,16.7
2018-06-14T04:50:41.319Z,14.4
2018-06-14T04:51:42.982Z,15.8
2018-06-14T04:52:44.642Z,13.4
2018-06-14T04:53:46.295Z,16.5
2018-06-14T04:54:48.005Z,12.4
2018-06-14T04:55:49.665Z,11.9
2018-06-14T04:56:51.321Z,13.3
2018-06-14T04:57:52.981Z,8.9
2018-06-14T04:58:54.646Z,8.7
2018-06-14T04:59:56.347Z,10.6
2018-06-14T05:00:57.995Z,10.4
2018-06-14T05:01:59.656Z,10.4
2018-06-14T05:03:01.347Z,13.0
2018-06-14T05:04:03.232Z,10.8
2018-06-14T05:05:04.888Z,9.9
2018-06-14T05:06:06.548Z,6.9
2018-06-14T05:07:08.207Z,8.6
2018-06-14T05:08:09.875Z,8.5
2018-06-14T05:09:11.538Z,10.8
2018-06-14T05:10:13.189Z,9.9
2018-06-14T05:11:14.849Z,10.9
2018-06-14T05:12:16.514Z,11.9
2018-06-14T05:13:18.179Z,8.2
2018-06-14T05:14:19.834Z,9.9
2018-06-14T05:15:21.491Z,8.3
2018-06-14T05:16:23.147Z,9.8
2018-06-14T05:17:24.806Z,8.9
2018-06-14T05:18:26.466Z,8.2
2018-06-14T05:19:28.125Z,6.2
2018-06-14T05:20:29.781Z,8.4
2018-06-14T05:21:31.454Z,8.4
2018-06-14T05:22:33.119Z,10.8
2018-06-14T05:23:34.809Z,8.1
2018-06-14T05:24:36.400Z,7.2
2018-06-14T05:25:38.069Z,7.4
2018-06-14T05:26:39.733Z,9.8
2018-06-14T05:27:41.388Z,9.1
2018-06-14T05:28:43.053Z,7.5
2018-06-14T05:29:44.763Z,7.1
2018-06-14T05:30:46.429Z,5.9
2018-06-14T05:31:48.099Z,6.7
2018-06-14T05:32:49.756Z,5.5
2018-06-14T05:33:51.418Z,5.2
2018-06-14T05:34:53.090Z,5.6
2018-06-14T05:35:54.757Z,4.9
2018-06-14T05:36:56.426Z,5.8
2018-06-14T05:37:58.085Z,4.8
2018-06-14T05:38:59.747Z,5.8
2018-06-14T05:40:01.444Z,6.5
2018-06-14T05:41:03.112Z,5.3
2018-06-14T05:42:04.771Z,6.6
2018-06-14T05:43:06.427Z,4.7
2018-06-14T05:44:08.099Z,6.7
2018-06-14T05:45:09.761Z,7.2
2018-06-14T05:46:11.427Z,5.1
2018-06-14T05:47:13.115Z,7.1
2018-06-14T05:48:14.774Z,6.7
2018-06-14T05:49:16.443Z,5.3
2018-06-14T05:50:18.123Z,4.9
2018-06-14T05:51:19.789Z,5.6
2018-06-14T05:52:21.451Z,7.3
2018-06-14T05:53:23.119Z,6.0
2018-06-14T05:54:24.783Z,5.9
2018-06-14T05:55:26.454Z,6.0
2018-06-14T06:01:53.348Z,5.2
2018-06-14T06:02:55.060Z,6.5
2018-06-14T06:03:56.675Z,7.3
2018-06-14T06:04:58.342Z,6.4
2018-06-14T06:06:00.028Z,6.4
2018-06-14T06:07:01.716Z,6.3
2018-06-14T06:08:03.383Z,5.6
2018-06-14T06:09:05.043Z,6.0
2018-06-14T06:10:06.708Z,5.1
2018-06-14T06:11:08.390Z,9.5
2018-06-14T06:12:10.049Z,7.1
2018-06-14T06:13:11.732Z,7.4
2018-06-14T06:14:13.386Z,6.8
2018-06-14T06:15:15.057Z,4.6
2018-06-14T06:16:16.732Z,7.7
2018-06-14T06:17:18.414Z,6.3
2018-06-14T06:18:20.079Z,5.4
2018-06-14T06:19:21.740Z,6.0
2018-06-14T06:20:23.414Z,5.8
2018-06-14T06:21:25.083Z,6.0
2018-06-14T06:22:26.758Z,7.2
2018-06-14T06:23:28.435Z,6.1
2018-06-14T06:24:30.081Z,5.9
2018-06-14T06:25:31.757Z,7.2
2018-06-14T06:26:33.419Z,6.9
2018-06-14T06:27:35.096Z,6.8
2018-06-14T06:28:36.753Z,6.4
2018-06-14T06:29:38.415Z,8.5
2018-06-14T06:30:40.081Z,8.9
2018-06-14T06:31:41.748Z,5.6
2018-06-14T06:32:43.417Z,5.7
2018-06-14T06:33:45.080Z,7.3
2018-06-14T06:34:46.746Z,6.5
2018-06-14T06:35:48.412Z,7.9
2018-06-14T06:36:50.068Z,8.9
2018-06-14T06:37:51.746Z,7.7
2018-06-14T06:38:53.415Z,8.1
2018-06-14T06:39:55.073Z,9.8
2018-06-14T06:40:56.741Z,9.2
2018-06-14T06:41:58.414Z,9.0
2018-06-14T06:43:00.078Z,7.2
2018-06-14T06:44:01.775Z,5.7
2018-06-14T06:45:03.445Z,8.5
2018-06-14T06:46:05.106Z,7.7
2018-06-14T06:47:06.772Z,6.1
2018-06-14T06:48:08.454Z,8.1
2018-06-14T06:49:10.120Z,7.5
2018-06-14T06:50:11.798Z,8.5
2018-06-14T06:51:13.464Z,8.3
2018-06-14T06:52:15.132Z,8.6
2018-06-14T06:53:16.807Z,13.1
2018-06-14T06:54:18.488Z,9.8
2018-06-14T06:55:20.149Z,7.0
2018-06-14T06:56:21.809Z,10.4
2018-06-14T06:57:23.483Z,7.5
2018-06-14T06:58:25.168Z,15.0
2018-06-14T06:59:27.933Z,9.4
2018-06-14T07:00:29.605Z,11.9
2018-06-14T07:01:31.321Z,10.6
2018-06-14T07:02:32.985Z,7.7
2018-06-14T07:03:34.653Z,10.3
2018-06-14T07:04:36.339Z,12.1
2018-06-14T07:05:37.993Z,10.7
2018-06-14T07:06:39.690Z,10.5
2018-06-14T07:07:41.353Z,9.5
2018-06-14T07:08:43.022Z,8.0
2018-06-14T07:09:44.689Z,9.6
2018-06-14T07:10:46.394Z,10.8
2018-06-14T07:11:48.058Z,10.0
2018-06-14T07:12:49.722Z,9.8
2018-06-14T07:13:51.396Z,10.8
2018-06-14T07:14:53.079Z,10.7
2018-06-14T07:15:54.746Z,11.9
2018-06-14T07:16:56.417Z,7.4
2018-06-14T07:17:58.093Z,6.9
2018-06-14T07:18:59.770Z,7.2
2018-06-14T07:20:01.479Z,7.6
2018-06-14T07:21:03.147Z,8.1
2018-06-14T07:22:04.838Z,9.6
2018-06-14T07:23:06.457Z,6.8
2018-06-14T07:24:08.134Z,7.3
2018-06-14T07:25:09.806Z,8.3
2018-06-14T07:26:11.489Z,8.0
2018-06-14T07:27:13.166Z,12.1
2018-06-14T07:28:14.847Z,7.1
2018-06-14T07:29:16.518Z,7.4
2018-06-14T07:30:18.191Z,7.3
2018-06-14T07:31:19.875Z,7.6
2018-06-14T07:32:21.551Z,6.5
2018-06-14T07:33:23.226Z,12.2
2018-06-14T07:34:24.893Z,9.2
2018-06-14T07:35:26.564Z,9.1
2018-06-14T07:36:28.243Z,8.3
2018-06-14T07:37:29.925Z,9.6
2018-06-14T07:38:31.592Z,7.3
2018-06-14T07:39:33.255Z,8.8
2018-06-14T07:40:34.935Z,9.8
2018-06-14T07:41:36.613Z,9.2
2018-06-14T07:42:38.285Z,10.6
2018-06-14T07:43:39.953Z,13.5
2018-06-14T07:44:41.614Z,11.2
2018-06-14T07:45:43.288Z,9.4
2018-06-14T07:46:44.958Z,8.8
2018-06-14T07:47:46.622Z,9.0
2018-06-14T07:48:48.286Z,11.1
2018-06-14T07:49:49.965Z,10.9
2018-06-14T07:50:51.636Z,12.6
2018-06-14T07:51:53.309Z,9.5
2018-06-14T07:52:54.975Z,10.5
2018-06-14T07:53:56.646Z,10.7
2018-06-14T07:54:58.312Z,11.7
2018-06-14T07:55:59.990Z,9.6
2018-06-14T07:57:01.700Z,8.2
2018-06-14T07:58:03.368Z,9.0
2018-06-14T07:59:05.035Z,10.3
2018-06-14T08:00:06.753Z,9.4
2018-06-14T08:01:08.350Z,12.1
2018-06-14T08:02:10.024Z,9.6
2018-06-14T08:03:11.720Z,7.5
2018-06-14T08:04:13.390Z,10.6
2018-06-14T08:05:15.062Z,10.0
2018-06-14T08:06:16.738Z,8.2
2018-06-14T08:07:18.413Z,6.8
2018-06-14T08:08:20.094Z,8.0
2018-06-14T08:09:21.771Z,9.3
2018-06-14T08:10:23.443Z,7.1
2018-06-14T08:11:25.127Z,7.5
2018-06-14T08:12:26.805Z,7.9
2018-06-14T08:13:28.467Z,7.1
2018-06-14T08:14:30.155Z,6.5
2018-06-14T08:15:31.832Z,8.6
2018-06-14T08:16:33.504Z,8.0
2018-06-14T08:17:35.174Z,8.6
2018-06-14T08:18:36.845Z,7.6
2018-06-14T08:19:38.515Z,8.5
2018-06-14T08:20:40.180Z,8.3
2018-06-14T08:21:41.893Z,5.9
2018-06-14T08:22:43.588Z,6.2
2018-06-14T08:23:45.306Z,8.1
2018-06-14T08:24:46.941Z,7.8
2018-06-14T08:25:48.642Z,8.2
2018-06-14T08:26:50.323Z,6.9
2018-06-14T08:27:51.994Z,6.6
2018-06-14T08:28:53.675Z,6.6
2018-06-14T08:29:55.342Z,8.4
2018-06-14T08:30:57.028Z,6.8
2018-06-14T08:31:58.700Z,8.0
2018-06-14T08:33:00.381Z,7.4
2018-06-14T08:34:02.059Z,7.0
2018-06-14T08:35:03.745Z,7.2
2018-06-14T08:36:05.434Z,8.3
2018-06-14T08:37:07.114Z,5.6
2018-06-14T08:38:08.792Z,7.9
2018-06-14T08:39:10.469Z,7.4
2018-06-14T08:40:12.159Z,10.2
2018-06-14T08:41:13.841Z,8.2
2018-06-14T08:42:15.528Z,6.3
2018-06-14T08:43:17.197Z,8.6
2018-06-14T08:44:18.866Z,6.6
2018-06-14T08:45:20.596Z,6.6
2018-06-14T08:46:22.286Z,7.8
2018-06-14T08:47:23.977Z,6.1
2018-06-14T08:48:25.668Z,8.0
2018-06-14T08:49:27.324Z,9.9
2018-06-14T08:50:29.004Z,9.6
2018-06-14T08:51:30.732Z,6.6
2018-06-14T08:52:32.403Z,10.9
2018-06-14T08:53:34.080Z,7.1
2018-06-14T08:54:35.761Z,6.1
2018-06-14T08:55:37.436Z,7.3
2018-06-14T08:56:39.113Z,8.6
2018-06-14T08:57:40.790Z,6.7
2018-06-14T08:58:42.467Z,8.4
2018-06-14T08:59:44.150Z,6.2
2018-06-14T09:00:45.840Z,7.8
2018-06-14T09:01:47.527Z,7.2
2018-06-14T09:02:49.206Z,7.3
2018-06-14T09:03:50.888Z,9.2
2018-06-14T09:04:52.567Z,6.7
2018-06-14T09:05:54.260Z,6.2
2018-06-14T09:06:55.918Z,7.9
2018-06-14T09:07:57.677Z,7.4
2018-06-14T09:08:59.354Z,7.1
2018-06-14T09:10:01.227Z,9.2
2018-06-14T09:11:02.903Z,8.1
2018-06-14T09:12:04.575Z,7.9
2018-06-14T09:13:06.244Z,8.0
2018-06-14T09:14:07.948Z,7.3
2018-06-14T09:15:09.617Z,7.0
2018-06-14T09:16:11.293Z,7.4
2018-06-14T09:17:12.969Z,7.5
2018-06-14T09:18:14.644Z,5.7
2018-06-14T09:19:16.310Z,7.7
2018-06-14T09:20:18.001Z,8.7
2018-06-14T09:21:19.671Z,7.9
2018-06-14T09:22:21.355Z,6.4
2018-06-14T09:23:23.028Z,6.7
2018-06-14T09:24:24.704Z,7.0
2018-06-14T09:25:26.386Z,6.6
2018-06-14T09:26:28.060Z,6.8
2018-06-14T09:27:29.743Z,6.7
2018-06-14T09:28:31.422Z,8.6
2018-06-14T09:29:33.123Z,7.5
2018-06-14T09:30:34.799Z,6.1
2018-06-14T09:31:36.485Z,9.6
2018-06-14T09:32:38.152Z,7.5
2018-06-14T09:33:39.833Z,6.7
2018-06-14T09:34:41.510Z,8.6
2018-06-14T09:35:43.189Z,5.4
2018-06-14T09:36:44.863Z,6.0
2018-06-14T09:37:46.542Z,5.3
2018-06-14T09:38:48.204Z,5.3
2018-06-14T09:39:49.882Z,5.2
2018-06-14T09:40:51.566Z,6.2
2018-06-14T09:41:53.236Z,6.3
2018-06-14T09:42:54.924Z,7.4
2018-06-14T09:43:56.602Z,5.9
2018-06-14T09:44:58.286Z,5.8
2018-06-14T09:45:59.963Z,7.8
2018-06-14T09:47:01.659Z,7.5
2018-06-14T09:48:03.355Z,8.3
2018-06-14T09:49:05.044Z,6.2
2018-06-14T09:50:06.721Z,4.6
2018-06-14T09:51:08.397Z,8.5
2018-06-14T09:52:10.087Z,4.9
2018-06-14T09:53:11.761Z,5.8
2018-06-14T09:54:13.434Z,6.7
2018-06-14T09:55:15.118Z,5.2
2018-06-14T10:01:33.193Z,7.8
2018-06-14T10:02:34.869Z,5.0
2018-06-14T10:04:26.875Z,6.9
2018-06-14T10:05:28.560Z,6.2
2018-06-14T10:07:20.531Z,7.6
2018-06-14T10:08:22.199Z,5.8
2018-06-14T10:10:14.125Z,5.6
2018-06-14T10:11:15.797Z,6.6
2018-06-14T10:13:07.798Z,5.9
2018-06-14T10:14:09.486Z,5.8
2018-06-14T10:15:11.203Z,4.9
2018-06-14T10:16:12.883Z,5.2
2018-06-14T10:17:14.564Z,6.5
2018-06-14T10:18:16.279Z,6.4
2018-06-14T10:19:17.965Z,8.2
2018-06-14T10:20:19.641Z,10.0
2018-06-14T10:21:21.335Z,8.0
2018-06-14T10:22:22.997Z,7.1
2018-06-14T10:23:24.676Z,7.2
2018-06-14T10:24:26.350Z,7.9
2018-06-14T10:25:28.037Z,5.5
2018-06-14T10:26:29.720Z,4.9
2018-06-14T10:27:31.419Z,6.5
2018-06-14T10:28:33.098Z,4.9
2018-06-14T10:29:34.773Z,5.1
2018-06-14T10:30:36.444Z,8.1
2018-06-14T10:31:38.124Z,5.2
2018-06-14T10:32:39.827Z,4.7
2018-06-14T10:33:41.496Z,5.3
2018-06-14T10:34:43.176Z,5.4
2018-06-14T10:35:44.852Z,6.4
2018-06-14T10:36:46.535Z,6.6
2018-06-14T10:37:48.215Z,5.6
2018-06-14T10:38:49.892Z,7.0
2018-06-14T10:39:51.568Z,6.3
2018-06-14T10:40:53.243Z,7.2
2018-06-14T10:41:54.923Z,7.2
2018-06-14T10:42:56.603Z,6.6
2018-06-14T10:43:58.278Z,5.5
2018-06-14T10:44:59.956Z,5.4
2018-06-14T10:46:01.706Z,4.7
2018-06-14T10:47:03.365Z,7.8
2018-06-14T10:48:05.047Z,6.0
2018-06-14T10:49:06.719Z,6.5
2018-06-14T10:50:08.397Z,7.5
2018-06-14T10:51:10.086Z,4.9
2018-06-14T10:52:11.756Z,4.6
2018-06-14T10:53:13.486Z,4.3
2018-06-14T10:54:15.172Z,4.7
2018-06-14T10:55:16.861Z,6.1
2018-06-14T10:56:18.543Z,5.0
2018-06-14T10:57:20.224Z,4.7
2018-06-14T10:58:21.901Z,7.1
2018-06-14T10:59:23.579Z,3.8
2018-06-14T11:00:25.252Z,4.7
2018-06-14T11:01:26.927Z,5.1
2018-06-14T11:02:28.604Z,8.0
2018-06-14T11:03:30.283Z,6.3
2018-06-14T11:04:31.960Z,6.2
2018-06-14T11:05:33.646Z,5.0
2018-06-14T11:06:35.321Z,5.8
2018-06-14T11:07:37.000Z,4.2
2018-06-14T11:08:38.668Z,5.4
2018-06-14T11:09:40.360Z,7.2
2018-06-14T11:10:42.046Z,5.2
2018-06-14T11:11:43.747Z,6.9
2018-06-14T11:12:45.435Z,4.3
2018-06-14T11:13:47.114Z,6.6
2018-06-14T11:14:48.789Z,4.2
2018-06-14T11:15:50.471Z,7.3
2018-06-14T11:16:52.161Z,5.9
2018-06-14T11:17:53.831Z,7.1
2018-06-14T11:18:55.510Z,5.7
2018-06-14T11:19:57.192Z,6.9
2018-06-14T11:20:58.874Z,7.7
2018-06-14T11:22:00.577Z,7.7
2018-06-14T11:23:02.267Z,5.6
2018-06-14T11:24:03.958Z,10.1
2018-06-14T11:25:05.629Z,6.5
2018-06-14T11:26:07.314Z,8.2
2018-06-14T11:27:08.996Z,5.1
2018-06-14T11:28:10.671Z,6.3
2018-06-14T11:29:12.339Z,4.5
2018-06-14T11:30:14.041Z,7.1
2018-06-14T11:31:15.754Z,5.6
2018-06-14T11:32:17.442Z,5.6
2018-06-14T11:33:19.120Z,6.1
2018-06-14T11:34:20.824Z,4.2
2018-06-14T11:35:22.506Z,4.8
2018-06-14T11:36:24.178Z,5.2
2018-06-14T11:37:25.858Z,4.4
2018-06-14T11:38:27.524Z,8.9
2018-06-14T11:39:29.204Z,4.7
2018-06-14T11:40:30.876Z,6.0
2018-06-14T11:41:32.556Z,5.3
2018-06-14T11:42:34.232Z,5.8
2018-06-14T11:43:35.909Z,6.3
2018-06-14T11:44:37.584Z,5.4
2018-06-14T11:45:39.264Z,6.1
2018-06-14T11:46:40.952Z,6.9
2018-06-14T11:47:42.637Z,4.6
2018-06-14T11:48:44.303Z,5.4
2018-06-14T11:49:46.020Z,6.8
2018-06-14T11:50:47.690Z,8.0
2018-06-14T11:51:49.366Z,6.8
2018-06-14T11:52:51.053Z,7.1
2018-06-14T11:53:52.772Z,5.0
2018-06-14T11:54:54.450Z,5.9
2018-06-14T11:55:56.132Z,5.1
2018-06-14T11:56:57.853Z,5.8
2018-06-14T11:57:59.541Z,6.4
2018-06-14T11:59:01.257Z,8.2
2018-06-14T12:00:02.930Z,8.7
2018-06-14T12:01:04.604Z,7.5
2018-06-14T12:02:06.291Z,8.1
2018-06-14T12:03:07.957Z,4.9
2018-06-14T12:04:09.628Z,5.7
2018-06-14T12:05:11.305Z,6.0
2018-06-14T12:06:13.057Z,7.1
2018-06-14T12:07:14.735Z,6.0
2018-06-14T12:08:16.452Z,5.1
2018-06-14T12:09:18.097Z,5.1
2018-06-14T12:10:19.764Z,5.5
2018-06-14T12:11:21.441Z,7.9
2018-06-14T12:12:23.126Z,5.3
2018-06-14T12:13:25.726Z,8.2
2018-06-14T12:14:27.409Z,10.0
2018-06-14T12:15:29.089Z,7.6
2018-06-14T12:16:30.756Z,8.6
2018-06-14T12:17:32.444Z,6.8
2018-06-14T12:18:34.122Z,7.4
2018-06-14T12:19:35.801Z,11.8
2018-06-14T12:20:37.475Z,7.0
2018-06-14T12:21:39.153Z,8.7
2018-06-14T12:22:40.829Z,10.3
2018-06-14T12:23:42.509Z,6.9
2018-06-14T12:24:44.190Z,7.2
2018-06-14T12:25:45.856Z,6.6
2018-06-14T12:26:47.540Z,8.0
2018-06-14T12:27:49.221Z,11.3
2018-06-14T12:28:50.985Z,10.4
2018-06-14T12:29:52.675Z,8.5
2018-06-14T12:30:54.340Z,7.0
2018-06-14T12:31:56.023Z,7.1
2018-06-14T12:32:57.729Z,8.8
2018-06-14T12:33:59.414Z,7.2
2018-06-14T12:35:01.120Z,6.9
2018-06-14T12:36:02.793Z,7.4
2018-06-14T12:37:04.478Z,7.8
2018-06-14T12:38:06.163Z,8.1
2018-06-14T12:39:07.833Z,8.9
2018-06-14T12:40:09.521Z,9.1
2018-06-14T12:41:11.192Z,6.6
2018-06-14T12:42:12.867Z,7.8
2018-06-14T12:43:14.560Z,8.8
2018-06-14T12:44:16.242Z,8.3
2018-06-14T12:45:17.909Z,6.0
2018-06-14T12:46:19.588Z,7.6
2018-06-14T12:47:21.265Z,8.4
2018-06-14T12:48:22.935Z,6.5
2018-06-14T12:49:24.602Z,9.9
2018-06-14T12:50:26.309Z,6.8
2018-06-14T12:51:27.989Z,6.0
2018-06-14T12:52:29.662Z,7.8
2018-06-14T12:53:31.336Z,8.5
2018-06-14T12:54:33.013Z,8.9
2018-06-14T12:55:34.683Z,7.9
2018-06-14T12:56:36.418Z,6.2
2018-06-14T12:57:38.059Z,7.4
2018-06-14T12:58:39.743Z,7.0
2018-06-14T12:59:41.402Z,7.0
2018-06-14T13:00:43.075Z,6.5
2018-06-14T13:01:44.748Z,7.6
2018-06-14T13:02:46.431Z,7.0
2018-06-14T13:03:48.109Z,6.9
2018-06-14T13:04:49.781Z,5.6
2018-06-14T13:05:51.468Z,7.2
2018-06-14T13:06:53.144Z,7.7
2018-06-14T13:07:54.822Z,7.2
2018-06-14T13:08:56.509Z,7.2
2018-06-14T13:09:58.442Z,8.5
2018-06-14T13:11:00.116Z,7.1
2018-06-14T13:12:01.802Z,6.4
2018-06-14T13:13:03.480Z,5.9
2018-06-14T13:14:05.142Z,7.2
2018-06-14T13:15:06.827Z,7.5
2018-06-14T13:16:08.513Z,7.8
2018-06-14T13:17:10.209Z,5.6
2018-06-14T13:18:11.889Z,8.6
2018-06-14T13:19:13.569Z,9.7
2018-06-14T13:20:15.250Z,6.1
2018-06-14T13:21:16.912Z,8.9
2018-06-14T13:22:18.600Z,7.1
2018-06-14T13:23:20.277Z,7.4
2018-06-14T13:24:21.947Z,6.5
2018-06-14T13:25:23.639Z,6.2
2018-06-14T13:26:25.317Z,5.8
2018-06-14T13:27:26.990Z,8.4
2018-06-14T13:28:28.692Z,5.9
2018-06-14T13:29:30.372Z,8.8
2018-06-14T13:30:32.049Z,7.3
2018-06-14T13:31:33.728Z,6.3
2018-06-14T13:32:35.411Z,5.5
2018-06-14T13:33:37.086Z,6.3
2018-06-14T13:34:38.795Z,5.6
2018-06-14T13:35:40.473Z,4.4
2018-06-14T13:36:42.146Z,5.7
2018-06-14T13:37:43.826Z,7.5
2018-06-14T13:38:45.496Z,5.1
2018-06-14T13:39:47.175Z,5.2
2018-06-14T13:40:48.853Z,7.9
2018-06-14T13:41:50.529Z,6.0
2018-06-14T13:42:52.199Z,6.8
2018-06-14T13:43:53.874Z,8.8
2018-06-14T13:44:55.543Z,7.4
2018-06-14T13:45:57.227Z,11.0
2018-06-14T13:46:58.906Z,7.7
2018-06-14T13:48:00.576Z,8.3
2018-06-14T13:49:02.345Z,8.8
2018-06-14T13:50:03.889Z,7.0
2018-06-14T13:51:05.552Z,8.5
2018-06-14T13:52:07.246Z,5.4
2018-06-14T13:53:08.929Z,5.7
2018-06-14T13:54:10.593Z,8.9
2018-06-14T13:55:12.311Z,5.8
2018-06-14T14:01:07.943Z,6.3
2018-06-14T14:02:09.460Z,6.2
2018-06-14T14:04:01.395Z,6.7
2018-06-14T14:05:03.063Z,6.3
2018-06-14T14:06:04.734Z,5.3
2018-06-14T14:07:06.411Z,5.7
2018-06-14T14:08:08.103Z,6.6
2018-06-14T14:09:09.779Z,8.0
2018-06-14T14:10:11.457Z,7.0
2018-06-14T14:11:13.143Z,6.6
2018-06-14T14:12:14.806Z,7.5
2018-06-14T14:13:16.482Z,9.5
2018-06-14T14:14:18.166Z,7.8
2018-06-14T14:15:19.837Z,7.2
2018-06-14T14:16:21.512Z,8.6
2018-06-14T14:17:23.182Z,8.5
2018-06-14T14:18:24.863Z,6.5
2018-06-14T14:19:26.564Z,8.4
2018-06-14T14:20:28.343Z,6.1
2018-06-14T14:21:30.009Z,9.3
2018-06-14T14:22:31.691Z,8.3